sensor_id;sensor_type;location;lat;lon;timestamp;temperature;humidity
11446;DHT22;5779;64.178;15.432;2023-10-13T00:02:32;5.20;99.90
11446;DHT22;5779;64.178;15.432;2023-10-13T00:05:19;5.20;99.90
11446;DHT22;5779;64.178;15.432;2023-10-13T00:08:08;5.30;99.90
11446;DHT22;5779;64.178;15.432;2023-10-13T00:10:57;5.30;99.90
11446;DHT22;5779;64.178;15.432;2023-10-13T00:13:45;5.40;99.90
11446;DHT22;5779;64.178;15.432;2023-10-13T00:16:36;5.40;99.90
11446;DHT22;5779;64.178;15.432;2023-10-13T00:19:25;5.40;99.90
11446;DHT22;5779;64.178;15.432;2023-10-13T00:22:14;5.40;99.90
11446;DHT22;5779;64.178;15.432;2023-10-13T00:25:01;5.40;99.90
11446;DHT22;5779;64.178;15.432;2023-10-13T00:27:50;5.50;99.90
11446;DHT22;5779;64.178;15.432;2023-10-13T00:30:37;5.60;99.90
11446;DHT22;5779;64.178;15.432;2023-10-13T00:33:24;5.60;99.90
11446;DHT22;5779;64.178;15.432;2023-10-13T00:36:11;5.50;99.90
11446;DHT22;5779;64.178;15.432;2023-10-13T00:39:05;5.50;99.90
11446;DHT22;5779;64.178;15.432;2023-10-13T00:41:52;5.50;99.90
11446;DHT22;5779;64.178;15.432;2023-10-13T00:44:46;5.30;99.90
11446;DHT22;5779;64.178;15.432;2023-10-13T00:47:34;5.50;99.90
11446;DHT22;5779;64.178;15.432;2023-10-13T00:50:35;5.50;99.90
11446;DHT22;5779;64.178;15.432;2023-10-13T00:53:22;5.60;99.90
11446;DHT22;5779;64.178;15.432;2023-10-13T00:56:10;5.70;99.90
11446;DHT22;5779;64.178;15.432;2023-10-13T00:59:04;5.70;99.90
11446;DHT22;5779;64.178;15.432;2023-10-13T01:01:56;5.70;99.90
11446;DHT22;5779;64.178;15.432;2023-10-13T01:04:42;5.60;99.90
11446;DHT22;5779;64.178;15.432;2023-10-13T01:07:32;5.70;99.90
11446;DHT22;5779;64.178;15.432;2023-10-13T01:10:18;5.70;99.90
11446;DHT22;5779;64.178;15.432;2023-10-13T01:13:05;5.70;99.90
11446;DHT22;5779;64.178;15.432;2023-10-13T01:15:52;5.70;99.90
11446;DHT22;5779;64.178;15.432;2023-10-13T01:18:40;5.90;99.90
11446;DHT22;5779;64.178;15.432;2023-10-13T01:21:33;6.00;99.90
11446;DHT22;5779;64.178;15.432;2023-10-13T01:24:21;5.90;99.90
11446;DHT22;5779;64.178;15.432;2023-10-13T01:27:09;5.80;99.90
11446;DHT22;5779;64.178;15.432;2023-10-13T01:30:02;5.80;99.90
11446;DHT22;5779;64.178;15.432;2023-10-13T01:32:55;5.70;99.90
11446;DHT22;5779;64.178;15.432;2023-10-13T01:35:45;5.60;99.90
11446;DHT22;5779;64.178;15.432;2023-10-13T01:38:33;5.70;99.90
11446;DHT22;5779;64.178;15.432;2023-10-13T01:41:22;5.60;99.90
11446;DHT22;5779;64.178;15.432;2023-10-13T01:44:10;5.60;99.90
11446;DHT22;5779;64.178;15.432;2023-10-13T01:47:00;5.50;99.90
11446;DHT22;5779;64.178;15.432;2023-10-13T01:49:51;5.40;99.90
11446;DHT22;5779;64.178;15.432;2023-10-13T01:52:38;5.30;99.90
11446;DHT22;5779;64.178;15.432;2023-10-13T01:55:24;5.50;99.90
11446;DHT22;5779;64.178;15.432;2023-10-13T01:58:14;5.60;99.90
11446;DHT22;5779;64.178;15.432;2023-10-13T02:01:00;5.70;99.90
11446;DHT22;5779;64.178;15.432;2023-10-13T02:03:56;5.60;99.90
11446;DHT22;5779;64.178;15.432;2023-10-13T02:06:47;5.40;99.90
11446;DHT22;5779;64.178;15.432;2023-10-13T02:09:34;5.50;99.90
11446;DHT22;5779;64.178;15.432;2023-10-13T02:12:22;5.40;99.90
11446;DHT22;5779;64.178;15.432;2023-10-13T02:15:16;5.30;99.90
11446;DHT22;5779;64.178;15.432;2023-10-13T02:18:07;4.80;99.90
11446;DHT22;5779;64.178;15.432;2023-10-13T02:20:54;4.50;99.90
11446;DHT22;5779;64.178;15.432;2023-10-13T02:23:42;4.40;99.90
11446;DHT22;5779;64.178;15.432;2023-10-13T02:26:31;4.20;99.90
11446;DHT22;5779;64.178;15.432;2023-10-13T02:29:24;4.10;99.90
11446;DHT22;5779;64.178;15.432;2023-10-13T02:32:11;4.10;99.90
11446;DHT22;5779;64.178;15.432;2023-10-13T02:35:04;3.60;99.90
11446;DHT22;5779;64.178;15.432;2023-10-13T02:37:53;3.60;99.90
11446;DHT22;5779;64.178;15.432;2023-10-13T02:40:42;3.50;99.90
11446;DHT22;5779;64.178;15.432;2023-10-13T02:43:29;3.60;99.90
11446;DHT22;5779;64.178;15.432;2023-10-13T02:46:18;3.80;99.90
11446;DHT22;5779;64.178;15.432;2023-10-13T02:49:08;4.00;99.90
11446;DHT22;5779;64.178;15.432;2023-10-13T02:51:56;4.20;99.90
11446;DHT22;5779;64.178;15.432;2023-10-13T02:54:44;4.00;99.90
11446;DHT22;5779;64.178;15.432;2023-10-13T02:57:36;3.80;99.90
11446;DHT22;5779;64.178;15.432;2023-10-13T03:00:22;3.90;99.90
11446;DHT22;5779;64.178;15.432;2023-10-13T03:03:09;3.90;99.90
11446;DHT22;5779;64.178;15.432;2023-10-13T03:05:59;3.90;99.90
11446;DHT22;5779;64.178;15.432;2023-10-13T03:08:47;3.70;99.90
11446;DHT22;5779;64.178;15.432;2023-10-13T03:11:33;3.60;99.90
11446;DHT22;5779;64.178;15.432;2023-10-13T03:14:22;3.50;99.90
11446;DHT22;5779;64.178;15.432;2023-10-13T03:17:12;3.50;99.90
11446;DHT22;5779;64.178;15.432;2023-10-13T03:20:02;3.50;99.90
11446;DHT22;5779;64.178;15.432;2023-10-13T03:22:54;3.70;99.90
11446;DHT22;5779;64.178;15.432;2023-10-13T03:25:40;3.90;99.90
11446;DHT22;5779;64.178;15.432;2023-10-13T03:28:29;3.90;99.90
11446;DHT22;5779;64.178;15.432;2023-10-13T03:31:19;3.90;99.90
11446;DHT22;5779;64.178;15.432;2023-10-13T03:34:12;4.00;99.90
11446;DHT22;5779;64.178;15.432;2023-10-13T03:37:00;4.10;99.90
11446;DHT22;5779;64.178;15.432;2023-10-13T03:39:57;4.20;99.90
11446;DHT22;5779;64.178;15.432;2023-10-13T03:42:45;4.30;99.90
11446;DHT22;5779;64.178;15.432;2023-10-13T03:45:45;4.30;99.90
11446;DHT22;5779;64.178;15.432;2023-10-13T03:48:33;4.30;99.90
11446;DHT22;5779;64.178;15.432;2023-10-13T03:51:36;4.30;99.90
11446;DHT22;5779;64.178;15.432;2023-10-13T03:54:24;4.00;99.90
11446;DHT22;5779;64.178;15.432;2023-10-13T03:57:16;3.90;99.90
11446;DHT22;5779;64.178;15.432;2023-10-13T04:00:04;3.70;99.90
11446;DHT22;5779;64.178;15.432;2023-10-13T04:02:54;3.70;99.90
11446;DHT22;5779;64.178;15.432;2023-10-13T04:05:52;3.80;99.90
11446;DHT22;5779;64.178;15.432;2023-10-13T04:08:51;3.90;99.90
11446;DHT22;5779;64.178;15.432;2023-10-13T04:11:52;4.00;99.90
11446;DHT22;5779;64.178;15.432;2023-10-13T04:14:56;4.00;99.90
11446;DHT22;5779;64.178;15.432;2023-10-13T04:17:54;4.00;99.90
11446;DHT22;5779;64.178;15.432;2023-10-13T04:20:41;4.10;99.90
11446;DHT22;5779;64.178;15.432;2023-10-13T04:23:31;4.10;99.90
11446;DHT22;5779;64.178;15.432;2023-10-13T04:26:37;4.10;99.90
11446;DHT22;5779;64.178;15.432;2023-10-13T04:29:44;4.10;99.90
11446;DHT22;5779;64.178;15.432;2023-10-13T04:32:37;4.10;99.90
11446;DHT22;5779;64.178;15.432;2023-10-13T04:35:34;4.10;99.90
11446;DHT22;5779;64.178;15.432;2023-10-13T04:38:32;4.10;99.90
11446;DHT22;5779;64.178;15.432;2023-10-13T04:41:39;4.30;99.90
11446;DHT22;5779;64.178;15.432;2023-10-13T04:44:27;4.00;99.90
11446;DHT22;5779;64.178;15.432;2023-10-13T04:47:30;3.70;99.90
11446;DHT22;5779;64.178;15.432;2023-10-13T04:50:26;3.80;99.90
11446;DHT22;5779;64.178;15.432;2023-10-13T04:53:21;3.90;99.90
11446;DHT22;5779;64.178;15.432;2023-10-13T04:56:16;3.80;99.90
11446;DHT22;5779;64.178;15.432;2023-10-13T04:59:16;3.60;99.90
11446;DHT22;5779;64.178;15.432;2023-10-13T05:02:21;3.20;99.90
11446;DHT22;5779;64.178;15.432;2023-10-13T05:05:25;2.80;99.90
11446;DHT22;5779;64.178;15.432;2023-10-13T05:08:32;2.60;99.90
11446;DHT22;5779;64.178;15.432;2023-10-13T05:11:36;2.60;99.90
11446;DHT22;5779;64.178;15.432;2023-10-13T05:14:40;2.60;99.90
11446;DHT22;5779;64.178;15.432;2023-10-13T05:17:44;2.70;99.90
11446;DHT22;5779;64.178;15.432;2023-10-13T05:20:49;2.90;99.90
11446;DHT22;5779;64.178;15.432;2023-10-13T05:23:55;3.10;99.90
11446;DHT22;5779;64.178;15.432;2023-10-13T05:26:59;3.10;99.90
11446;DHT22;5779;64.178;15.432;2023-10-13T05:30:04;2.90;99.90
11446;DHT22;5779;64.178;15.432;2023-10-13T05:33:04;3.00;99.90
11446;DHT22;5779;64.178;15.432;2023-10-13T05:36:10;3.20;99.90
11446;DHT22;5779;64.178;15.432;2023-10-13T05:39:16;3.40;99.90
11446;DHT22;5779;64.178;15.432;2023-10-13T05:42:21;3.30;99.90
11446;DHT22;5779;64.178;15.432;2023-10-13T05:45:25;3.20;99.90
11446;DHT22;5779;64.178;15.432;2023-10-13T05:48:43;3.20;99.90
11446;DHT22;5779;64.178;15.432;2023-10-13T05:51:48;3.10;99.90
11446;DHT22;5779;64.178;15.432;2023-10-13T05:54:45;3.20;99.90
11446;DHT22;5779;64.178;15.432;2023-10-13T05:57:50;3.30;99.90
11446;DHT22;5779;64.178;15.432;2023-10-13T06:00:54;3.00;99.90
11446;DHT22;5779;64.178;15.432;2023-10-13T06:03:59;2.90;99.90
11446;DHT22;5779;64.178;15.432;2023-10-13T06:07:08;3.00;99.90
11446;DHT22;5779;64.178;15.432;2023-10-13T06:10:14;3.00;99.90
11446;DHT22;5779;64.178;15.432;2023-10-13T06:13:18;3.10;99.90
11446;DHT22;5779;64.178;15.432;2023-10-13T06:16:23;3.10;99.90
11446;DHT22;5779;64.178;15.432;2023-10-13T06:19:27;2.90;99.90
11446;DHT22;5779;64.178;15.432;2023-10-13T06:22:31;2.80;99.90
11446;DHT22;5779;64.178;15.432;2023-10-13T06:25:39;2.60;99.90
11446;DHT22;5779;64.178;15.432;2023-10-13T06:28:44;2.80;99.90
11446;DHT22;5779;64.178;15.432;2023-10-13T06:31:31;2.80;99.90
11446;DHT22;5779;64.178;15.432;2023-10-13T06:34:20;2.90;99.90
11446;DHT22;5779;64.178;15.432;2023-10-13T06:37:17;3.10;99.90
11446;DHT22;5779;64.178;15.432;2023-10-13T06:40:12;3.20;99.90
11446;DHT22;5779;64.178;15.432;2023-10-13T06:43:09;3.20;99.90
11446;DHT22;5779;64.178;15.432;2023-10-13T06:46:02;3.40;99.90
11446;DHT22;5779;64.178;15.432;2023-10-13T06:48:49;3.50;99.90
11446;DHT22;5779;64.178;15.432;2023-10-13T06:51:38;3.60;99.90
11446;DHT22;5779;64.178;15.432;2023-10-13T06:54:26;4.00;99.90
11446;DHT22;5779;64.178;15.432;2023-10-13T06:57:14;4.00;99.90
11446;DHT22;5779;64.178;15.432;2023-10-13T07:00:08;3.90;99.90
11446;DHT22;5779;64.178;15.432;2023-10-13T07:03:04;3.90;99.90
11446;DHT22;5779;64.178;15.432;2023-10-13T07:05:52;3.90;99.90
11446;DHT22;5779;64.178;15.432;2023-10-13T07:08:39;3.90;99.90
11446;DHT22;5779;64.178;15.432;2023-10-13T07:11:26;3.90;99.90
11446;DHT22;5779;64.178;15.432;2023-10-13T07:14:19;4.30;99.90
11446;DHT22;5779;64.178;15.432;2023-10-13T07:17:10;4.50;99.90
11446;DHT22;5779;64.178;15.432;2023-10-13T07:19:57;4.50;99.90
11446;DHT22;5779;64.178;15.432;2023-10-13T07:23:00;4.40;99.90
11446;DHT22;5779;64.178;15.432;2023-10-13T07:25:55;4.40;99.90
11446;DHT22;5779;64.178;15.432;2023-10-13T07:28:47;4.20;99.90
11446;DHT22;5779;64.178;15.432;2023-10-13T07:31:37;4.20;99.90
11446;DHT22;5779;64.178;15.432;2023-10-13T07:34:28;4.30;99.90
11446;DHT22;5779;64.178;15.432;2023-10-13T07:37:17;4.50;99.90
11446;DHT22;5779;64.178;15.432;2023-10-13T07:40:06;4.70;99.90
11446;DHT22;5779;64.178;15.432;2023-10-13T07:43:07;4.70;99.90
11446;DHT22;5779;64.178;15.432;2023-10-13T07:45:56;4.80;99.90
11446;DHT22;5779;64.178;15.432;2023-10-13T07:48:51;4.80;99.90
11446;DHT22;5779;64.178;15.432;2023-10-13T07:51:40;4.80;99.90
11446;DHT22;5779;64.178;15.432;2023-10-13T07:54:30;4.70;99.90
11446;DHT22;5779;64.178;15.432;2023-10-13T07:57:17;4.80;99.90
11446;DHT22;5779;64.178;15.432;2023-10-13T08:00:05;4.70;99.90
11446;DHT22;5779;64.178;15.432;2023-10-13T08:02:59;4.70;99.90
11446;DHT22;5779;64.178;15.432;2023-10-13T08:06:04;4.60;99.90
11446;DHT22;5779;64.178;15.432;2023-10-13T08:08:53;4.70;99.90
11446;DHT22;5779;64.178;15.432;2023-10-13T08:11:44;4.80;99.90
11446;DHT22;5779;64.178;15.432;2023-10-13T08:14:31;4.90;99.90
11446;DHT22;5779;64.178;15.432;2023-10-13T08:17:19;4.90;99.90
11446;DHT22;5779;64.178;15.432;2023-10-13T08:20:11;5.00;99.90
11446;DHT22;5779;64.178;15.432;2023-10-13T08:22:58;4.90;99.90
11446;DHT22;5779;64.178;15.432;2023-10-13T08:26:00;4.90;99.90
11446;DHT22;5779;64.178;15.432;2023-10-13T08:29:09;5.00;99.90
11446;DHT22;5779;64.178;15.432;2023-10-13T08:32:09;5.10;99.90
11446;DHT22;5779;64.178;15.432;2023-10-13T08:35:16;5.00;99.90
11446;DHT22;5779;64.178;15.432;2023-10-13T08:38:11;5.10;99.90
11446;DHT22;5779;64.178;15.432;2023-10-13T08:41:02;5.10;99.90
11446;DHT22;5779;64.178;15.432;2023-10-13T08:44:14;5.20;99.90
11446;DHT22;5779;64.178;15.432;2023-10-13T08:47:18;5.30;99.90
11446;DHT22;5779;64.178;15.432;2023-10-13T08:50:07;5.40;99.90
11446;DHT22;5779;64.178;15.432;2023-10-13T08:53:18;5.30;99.90
11446;DHT22;5779;64.178;15.432;2023-10-13T08:56:13;5.40;99.90
11446;DHT22;5779;64.178;15.432;2023-10-13T08:59:02;5.40;99.90
11446;DHT22;5779;64.178;15.432;2023-10-13T09:01:53;5.50;99.90
11446;DHT22;5779;64.178;15.432;2023-10-13T09:05:01;5.60;99.90
11446;DHT22;5779;64.178;15.432;2023-10-13T09:08:07;5.70;99.90
11446;DHT22;5779;64.178;15.432;2023-10-13T09:10:58;5.60;99.90
11446;DHT22;5779;64.178;15.432;2023-10-13T09:13:51;5.70;99.90
11446;DHT22;5779;64.178;15.432;2023-10-13T09:16:38;5.70;99.90
11446;DHT22;5779;64.178;15.432;2023-10-13T09:19:54;5.70;99.90
11446;DHT22;5779;64.178;15.432;2023-10-13T09:22:42;5.70;99.90
11446;DHT22;5779;64.178;15.432;2023-10-13T09:25:41;5.60;99.90
11446;DHT22;5779;64.178;15.432;2023-10-13T09:28:43;5.70;99.90
11446;DHT22;5779;64.178;15.432;2023-10-13T09:31:29;5.70;99.90
11446;DHT22;5779;64.178;15.432;2023-10-13T09:34:21;5.70;99.90
11446;DHT22;5779;64.178;15.432;2023-10-13T09:37:11;5.80;99.90
11446;DHT22;5779;64.178;15.432;2023-10-13T09:40:07;5.80;99.90
11446;DHT22;5779;64.178;15.432;2023-10-13T09:43:10;5.70;99.90
11446;DHT22;5779;64.178;15.432;2023-10-13T09:46:01;5.50;99.90
11446;DHT22;5779;64.178;15.432;2023-10-13T09:48:57;5.60;99.90
11446;DHT22;5779;64.178;15.432;2023-10-13T09:51:52;5.70;99.90
11446;DHT22;5779;64.178;15.432;2023-10-13T09:55:17;5.80;99.90
11446;DHT22;5779;64.178;15.432;2023-10-13T09:58:08;5.70;99.90
11446;DHT22;5779;64.178;15.432;2023-10-13T10:01:00;5.90;99.90
11446;DHT22;5779;64.178;15.432;2023-10-13T10:03:54;6.10;99.90
11446;DHT22;5779;64.178;15.432;2023-10-13T10:06:53;6.00;99.90
11446;DHT22;5779;64.178;15.432;2023-10-13T10:09:40;5.90;99.90
11446;DHT22;5779;64.178;15.432;2023-10-13T10:12:38;5.80;99.90
11446;DHT22;5779;64.178;15.432;2023-10-13T10:15:28;6.00;99.90
11446;DHT22;5779;64.178;15.432;2023-10-13T10:18:19;6.10;99.90
11446;DHT22;5779;64.178;15.432;2023-10-13T10:21:07;6.20;99.90
11446;DHT22;5779;64.178;15.432;2023-10-13T10:23:55;5.90;99.90
11446;DHT22;5779;64.178;15.432;2023-10-13T10:26:50;5.90;99.90
11446;DHT22;5779;64.178;15.432;2023-10-13T10:29:40;6.00;99.90
11446;DHT22;5779;64.178;15.432;2023-10-13T10:32:34;6.00;99.90
11446;DHT22;5779;64.178;15.432;2023-10-13T10:35:23;6.10;99.90
11446;DHT22;5779;64.178;15.432;2023-10-13T10:38:15;6.30;99.90
11446;DHT22;5779;64.178;15.432;2023-10-13T10:41:09;6.30;99.90
11446;DHT22;5779;64.178;15.432;2023-10-13T10:43:58;6.40;99.90
11446;DHT22;5779;64.178;15.432;2023-10-13T10:46:49;6.30;99.90
11446;DHT22;5779;64.178;15.432;2023-10-13T10:49:42;6.20;99.90
11446;DHT22;5779;64.178;15.432;2023-10-13T10:52:29;6.10;99.90
11446;DHT22;5779;64.178;15.432;2023-10-13T10:55:22;6.30;99.90
11446;DHT22;5779;64.178;15.432;2023-10-13T10:58:13;6.50;99.90
11446;DHT22;5779;64.178;15.432;2023-10-13T11:01:14;6.40;99.90
11446;DHT22;5779;64.178;15.432;2023-10-13T11:04:08;6.50;99.90
11446;DHT22;5779;64.178;15.432;2023-10-13T11:06:59;6.40;99.90
11446;DHT22;5779;64.178;15.432;2023-10-13T11:09:46;6.40;99.90
11446;DHT22;5779;64.178;15.432;2023-10-13T11:12:37;6.40;99.90
11446;DHT22;5779;64.178;15.432;2023-10-13T11:15:25;6.30;99.90
11446;DHT22;5779;64.178;15.432;2023-10-13T11:18:29;6.20;99.90
11446;DHT22;5779;64.178;15.432;2023-10-13T11:21:21;6.20;99.90
11446;DHT22;5779;64.178;15.432;2023-10-13T11:24:08;6.10;99.90
11446;DHT22;5779;64.178;15.432;2023-10-13T11:26:57;5.90;99.90
11446;DHT22;5779;64.178;15.432;2023-10-13T11:29:44;6.20;99.90
11446;DHT22;5779;64.178;15.432;2023-10-13T11:32:37;6.20;99.90
11446;DHT22;5779;64.178;15.432;2023-10-13T11:35:27;6.20;99.90
11446;DHT22;5779;64.178;15.432;2023-10-13T11:38:35;6.20;99.90
11446;DHT22;5779;64.178;15.432;2023-10-13T11:41:34;6.10;99.90
11446;DHT22;5779;64.178;15.432;2023-10-13T11:44:31;6.10;99.90
11446;DHT22;5779;64.178;15.432;2023-10-13T11:47:28;6.00;99.90
11446;DHT22;5779;64.178;15.432;2023-10-13T11:50:32;5.90;99.90
11446;DHT22;5779;64.178;15.432;2023-10-13T11:53:20;6.00;99.90
11446;DHT22;5779;64.178;15.432;2023-10-13T11:56:09;5.80;99.90
11446;DHT22;5779;64.178;15.432;2023-10-13T11:58:56;5.80;99.90
11446;DHT22;5779;64.178;15.432;2023-10-13T12:01:46;5.90;99.90
11446;DHT22;5779;64.178;15.432;2023-10-13T12:04:51;5.90;99.90
11446;DHT22;5779;64.178;15.432;2023-10-13T12:07:39;5.90;99.90
11446;DHT22;5779;64.178;15.432;2023-10-13T12:10:30;5.80;99.90
11446;DHT22;5779;64.178;15.432;2023-10-13T12:13:26;5.70;99.90
11446;DHT22;5779;64.178;15.432;2023-10-13T12:16:13;5.80;99.90
11446;DHT22;5779;64.178;15.432;2023-10-13T12:19:04;5.80;99.90
11446;DHT22;5779;64.178;15.432;2023-10-13T12:21:56;5.90;99.90
11446;DHT22;5779;64.178;15.432;2023-10-13T12:24:49;6.00;99.90
11446;DHT22;5779;64.178;15.432;2023-10-13T12:27:38;6.10;99.90
11446;DHT22;5779;64.178;15.432;2023-10-13T12:30:35;6.10;99.90
11446;DHT22;5779;64.178;15.432;2023-10-13T12:33:34;5.90;99.90
11446;DHT22;5779;64.178;15.432;2023-10-13T12:36:26;6.10;99.90
11446;DHT22;5779;64.178;15.432;2023-10-13T12:39:26;6.00;99.90
11446;DHT22;5779;64.178;15.432;2023-10-13T12:42:30;6.10;99.90
11446;DHT22;5779;64.178;15.432;2023-10-13T12:45:40;6.20;99.90
11446;DHT22;5779;64.178;15.432;2023-10-13T12:48:44;6.10;99.90
11446;DHT22;5779;64.178;15.432;2023-10-13T12:51:49;6.00;99.90
11446;DHT22;5779;64.178;15.432;2023-10-13T12:54:39;6.10;99.90
11446;DHT22;5779;64.178;15.432;2023-10-13T12:57:28;5.90;99.90
11446;DHT22;5779;64.178;15.432;2023-10-13T13:00:15;6.10;99.90
11446;DHT22;5779;64.178;15.432;2023-10-13T13:03:19;6.10;99.90
11446;DHT22;5779;64.178;15.432;2023-10-13T13:06:07;6.30;99.90
11446;DHT22;5779;64.178;15.432;2023-10-13T13:20:18;6.00;99.90
11446;DHT22;5779;64.178;15.432;2023-10-13T13:23:13;6.10;99.90
11446;DHT22;5779;64.178;15.432;2023-10-13T13:26:01;6.30;99.90
11446;DHT22;5779;64.178;15.432;2023-10-13T13:28:54;6.20;99.90
11446;DHT22;5779;64.178;15.432;2023-10-13T13:31:40;6.30;99.90
11446;DHT22;5779;64.178;15.432;2023-10-13T13:34:29;6.30;99.90
11446;DHT22;5779;64.178;15.432;2023-10-13T13:37:17;6.20;99.90
11446;DHT22;5779;64.178;15.432;2023-10-13T13:40:06;6.20;99.90
11446;DHT22;5779;64.178;15.432;2023-10-13T13:43:00;6.00;99.90
11446;DHT22;5779;64.178;15.432;2023-10-13T13:45:47;6.00;99.90
11446;DHT22;5779;64.178;15.432;2023-10-13T13:48:35;5.80;99.90
11446;DHT22;5779;64.178;15.432;2023-10-13T13:51:22;5.90;99.90
11446;DHT22;5779;64.178;15.432;2023-10-13T13:54:14;5.90;99.90
11446;DHT22;5779;64.178;15.432;2023-10-13T13:57:02;5.90;99.90
11446;DHT22;5779;64.178;15.432;2023-10-13T13:59:52;5.70;99.90
11446;DHT22;5779;64.178;15.432;2023-10-13T14:02:39;5.70;99.90
11446;DHT22;5779;64.178;15.432;2023-10-13T14:05:32;5.80;99.90
11446;DHT22;5779;64.178;15.432;2023-10-13T14:08:19;5.70;99.90
11446;DHT22;5779;64.178;15.432;2023-10-13T14:11:08;5.60;99.90
11446;DHT22;5779;64.178;15.432;2023-10-13T14:14:11;5.60;99.90
11446;DHT22;5779;64.178;15.432;2023-10-13T14:17:13;5.60;99.90
11446;DHT22;5779;64.178;15.432;2023-10-13T14:20:01;5.60;99.90
11446;DHT22;5779;64.178;15.432;2023-10-13T14:22:54;5.50;99.90
11446;DHT22;5779;64.178;15.432;2023-10-13T14:25:41;5.50;99.90
11446;DHT22;5779;64.178;15.432;2023-10-13T14:28:32;5.40;99.90
11446;DHT22;5779;64.178;15.432;2023-10-13T14:31:20;5.40;99.90
11446;DHT22;5779;64.178;15.432;2023-10-13T14:34:08;5.40;99.90
11446;DHT22;5779;64.178;15.432;2023-10-13T14:36:56;5.40;99.90
11446;DHT22;5779;64.178;15.432;2023-10-13T14:39:43;5.30;99.90
11446;DHT22;5779;64.178;15.432;2023-10-13T14:42:29;5.20;99.90
11446;DHT22;5779;64.178;15.432;2023-10-13T14:45:22;5.30;99.90
11446;DHT22;5779;64.178;15.432;2023-10-13T14:48:09;5.20;99.90
11446;DHT22;5779;64.178;15.432;2023-10-13T14:50:57;5.20;99.90
11446;DHT22;5779;64.178;15.432;2023-10-13T14:53:45;5.30;99.90
11446;DHT22;5779;64.178;15.432;2023-10-13T14:56:32;5.30;99.90
11446;DHT22;5779;64.178;15.432;2023-10-13T14:59:19;5.30;99.90
11446;DHT22;5779;64.178;15.432;2023-10-13T15:02:09;5.20;99.90
11446;DHT22;5779;64.178;15.432;2023-10-13T15:04:55;5.30;99.90
11446;DHT22;5779;64.178;15.432;2023-10-13T15:07:43;5.20;99.90
11446;DHT22;5779;64.178;15.432;2023-10-13T15:10:30;5.30;99.90
11446;DHT22;5779;64.178;15.432;2023-10-13T15:13:17;5.30;99.90
11446;DHT22;5779;64.178;15.432;2023-10-13T15:16:13;5.10;99.90
11446;DHT22;5779;64.178;15.432;2023-10-13T15:19:04;5.20;99.90
11446;DHT22;5779;64.178;15.432;2023-10-13T15:21:52;5.20;99.90
11446;DHT22;5779;64.178;15.432;2023-10-13T15:24:39;5.10;99.90
11446;DHT22;5779;64.178;15.432;2023-10-13T15:27:31;5.10;99.90
11446;DHT22;5779;64.178;15.432;2023-10-13T15:30:25;5.00;99.90
11446;DHT22;5779;64.178;15.432;2023-10-13T15:33:16;5.00;99.90
11446;DHT22;5779;64.178;15.432;2023-10-13T15:36:12;4.90;99.90
11446;DHT22;5779;64.178;15.432;2023-10-13T15:39:05;4.90;99.90
11446;DHT22;5779;64.178;15.432;2023-10-13T15:42:00;5.00;99.90
11446;DHT22;5779;64.178;15.432;2023-10-13T15:44:50;5.00;99.90
11446;DHT22;5779;64.178;15.432;2023-10-13T15:47:41;5.00;99.90
11446;DHT22;5779;64.178;15.432;2023-10-13T15:50:37;5.00;99.90
11446;DHT22;5779;64.178;15.432;2023-10-13T15:53:33;4.90;99.90
11446;DHT22;5779;64.178;15.432;2023-10-13T15:56:27;5.00;99.90
11446;DHT22;5779;64.178;15.432;2023-10-13T15:59:23;5.00;99.90
11446;DHT22;5779;64.178;15.432;2023-10-13T16:02:17;5.00;99.90
11446;DHT22;5779;64.178;15.432;2023-10-13T16:05:14;4.90;99.90
11446;DHT22;5779;64.178;15.432;2023-10-13T16:08:07;4.80;99.90
11446;DHT22;5779;64.178;15.432;2023-10-13T16:11:05;4.80;99.90
11446;DHT22;5779;64.178;15.432;2023-10-13T16:13:58;4.80;99.90
11446;DHT22;5779;64.178;15.432;2023-10-13T16:16:49;4.70;99.90
11446;DHT22;5779;64.178;15.432;2023-10-13T16:19:42;4.70;99.90
11446;DHT22;5779;64.178;15.432;2023-10-13T16:22:33;4.70;99.90
11446;DHT22;5779;64.178;15.432;2023-10-13T16:25:25;5.00;99.90
11446;DHT22;5779;64.178;15.432;2023-10-13T16:28:19;4.90;99.90
11446;DHT22;5779;64.178;15.432;2023-10-13T16:31:13;4.90;99.90
11446;DHT22;5779;64.178;15.432;2023-10-13T16:34:02;4.80;99.90
11446;DHT22;5779;64.178;15.432;2023-10-13T16:36:55;4.80;99.90
11446;DHT22;5779;64.178;15.432;2023-10-13T16:39:44;4.80;99.90
11446;DHT22;5779;64.178;15.432;2023-10-13T16:42:32;4.70;99.90
11446;DHT22;5779;64.178;15.432;2023-10-13T16:45:27;4.80;99.90
11446;DHT22;5779;64.178;15.432;2023-10-13T16:48:19;4.80;99.90
11446;DHT22;5779;64.178;15.432;2023-10-13T16:51:09;4.80;99.90
11446;DHT22;5779;64.178;15.432;2023-10-13T16:54:00;4.80;99.90
11446;DHT22;5779;64.178;15.432;2023-10-13T16:56:49;4.70;99.90
11446;DHT22;5779;64.178;15.432;2023-10-13T16:59:46;4.60;99.90
11446;DHT22;5779;64.178;15.432;2023-10-13T17:02:40;4.60;99.90
11446;DHT22;5779;64.178;15.432;2023-10-13T17:05:40;4.60;99.90
11446;DHT22;5779;64.178;15.432;2023-10-13T17:08:34;4.70;99.90
11446;DHT22;5779;64.178;15.432;2023-10-13T17:11:23;4.70;99.90
11446;DHT22;5779;64.178;15.432;2023-10-13T17:14:17;4.70;99.90
11446;DHT22;5779;64.178;15.432;2023-10-13T17:17:05;4.70;99.90
11446;DHT22;5779;64.178;15.432;2023-10-13T17:19:55;4.80;99.90
11446;DHT22;5779;64.178;15.432;2023-10-13T17:22:42;4.70;99.90
11446;DHT22;5779;64.178;15.432;2023-10-13T17:25:31;4.70;99.90
11446;DHT22;5779;64.178;15.432;2023-10-13T17:28:17;4.60;99.90
11446;DHT22;5779;64.178;15.432;2023-10-13T17:31:07;4.60;99.90
11446;DHT22;5779;64.178;15.432;2023-10-13T17:33:54;4.60;99.90
11446;DHT22;5779;64.178;15.432;2023-10-13T17:36:45;4.60;99.90
11446;DHT22;5779;64.178;15.432;2023-10-13T17:39:38;4.70;99.90
11446;DHT22;5779;64.178;15.432;2023-10-13T17:42:28;4.70;99.90
11446;DHT22;5779;64.178;15.432;2023-10-13T17:45:16;4.60;99.90
11446;DHT22;5779;64.178;15.432;2023-10-13T17:48:04;4.70;99.90
11446;DHT22;5779;64.178;15.432;2023-10-13T17:50:52;4.70;99.90
11446;DHT22;5779;64.178;15.432;2023-10-13T17:53:40;4.70;99.90
11446;DHT22;5779;64.178;15.432;2023-10-13T17:56:27;4.70;99.90
11446;DHT22;5779;64.178;15.432;2023-10-13T17:59:16;4.70;99.90
11446;DHT22;5779;64.178;15.432;2023-10-13T18:02:03;4.50;99.90
11446;DHT22;5779;64.178;15.432;2023-10-13T18:04:50;4.60;99.90
11446;DHT22;5779;64.178;15.432;2023-10-13T18:07:37;4.50;99.90
11446;DHT22;5779;64.178;15.432;2023-10-13T18:10:27;4.40;99.90
11446;DHT22;5779;64.178;15.432;2023-10-13T18:13:15;4.40;99.90
11446;DHT22;5779;64.178;15.432;2023-10-13T18:16:12;4.30;99.90
11446;DHT22;5779;64.178;15.432;2023-10-13T18:18:59;4.30;99.90
11446;DHT22;5779;64.178;15.432;2023-10-13T18:21:47;4.20;99.90
11446;DHT22;5779;64.178;15.432;2023-10-13T18:24:34;4.10;99.90
11446;DHT22;5779;64.178;15.432;2023-10-13T18:27:23;4.00;99.90
11446;DHT22;5779;64.178;15.432;2023-10-13T18:30:11;4.00;99.90
11446;DHT22;5779;64.178;15.432;2023-10-13T18:32:58;4.00;99.90
11446;DHT22;5779;64.178;15.432;2023-10-13T18:35:45;4.00;99.90
11446;DHT22;5779;64.178;15.432;2023-10-13T18:38:37;3.80;99.90
11446;DHT22;5779;64.178;15.432;2023-10-13T18:41:24;3.70;99.90